sensor_id;sensor_type;location;lat;lon;timestamp;temperature;humidity
59651;DHT22;45954;49.768;8.636;2023-05-10T00:01:09;15.40;99.90
59651;DHT22;45954;49.768;8.636;2023-05-10T00:03:35;15.20;99.90
59651;DHT22;45954;49.768;8.636;2023-05-10T00:06:01;15.20;99.90
59651;DHT22;45954;49.768;8.636;2023-05-10T00:08:27;15.20;99.90
59651;DHT22;45954;49.768;8.636;2023-05-10T00:10:53;15.20;99.90
59651;DHT22;45954;49.768;8.636;2023-05-10T00:13:19;15.30;99.90
59651;DHT22;45954;49.768;8.636;2023-05-10T00:15:44;15.20;99.90
59651;DHT22;45954;49.768;8.636;2023-05-10T00:18:10;15.40;99.90
59651;DHT22;45954;49.768;8.636;2023-05-10T00:20:36;15.20;99.90
59651;DHT22;45954;49.768;8.636;2023-05-10T00:23:02;15.20;99.90
59651;DHT22;45954;49.768;8.636;2023-05-10T00:25:28;15.30;99.90
59651;DHT22;45954;49.768;8.636;2023-05-10T00:27:54;15.20;99.90
59651;DHT22;45954;49.768;8.636;2023-05-10T00:30:22;15.20;99.90
59651;DHT22;45954;49.768;8.636;2023-05-10T00:32:49;15.00;99.90
59651;DHT22;45954;49.768;8.636;2023-05-10T00:35:15;15.10;99.90
59651;DHT22;45954;49.768;8.636;2023-05-10T00:37:41;15.10;99.90
59651;DHT22;45954;49.768;8.636;2023-05-10T00:40:08;15.00;99.90
59651;DHT22;45954;49.768;8.636;2023-05-10T00:42:34;14.90;99.90
59651;DHT22;45954;49.768;8.636;2023-05-10T00:45:00;15.10;99.90
59651;DHT22;45954;49.768;8.636;2023-05-10T00:47:26;15.10;99.90
59651;DHT22;45954;49.768;8.636;2023-05-10T00:49:52;15.00;99.90
59651;DHT22;45954;49.768;8.636;2023-05-10T00:52:18;15.00;99.90
59651;DHT22;45954;49.768;8.636;2023-05-10T00:54:45;15.00;99.90
59651;DHT22;45954;49.768;8.636;2023-05-10T00:57:11;15.00;99.90
59651;DHT22;45954;49.768;8.636;2023-05-10T00:59:37;14.90;99.90
59651;DHT22;45954;49.768;8.636;2023-05-10T01:02:03;14.80;99.90
59651;DHT22;45954;49.768;8.636;2023-05-10T01:04:29;14.80;99.90
59651;DHT22;45954;49.768;8.636;2023-05-10T01:06:55;14.80;99.90
59651;DHT22;45954;49.768;8.636;2023-05-10T01:09:22;14.80;99.90
59651;DHT22;45954;49.768;8.636;2023-05-10T01:11:49;14.90;99.90
59651;DHT22;45954;49.768;8.636;2023-05-10T01:14:18;14.90;99.90
59651;DHT22;45954;49.768;8.636;2023-05-10T01:16:47;15.00;99.90
59651;DHT22;45954;49.768;8.636;2023-05-10T01:19:23;15.00;99.90
59651;DHT22;45954;49.768;8.636;2023-05-10T01:33:48;15.00;99.90
59651;DHT22;45954;49.768;8.636;2023-05-10T01:39:28;15.00;99.90
59651;DHT22;45954;49.768;8.636;2023-05-10T01:42:10;15.00;99.90
59651;DHT22;45954;49.768;8.636;2023-05-10T01:44:52;14.90;99.90
59651;DHT22;45954;49.768;8.636;2023-05-10T01:47:43;15.00;99.90
59651;DHT22;45954;49.768;8.636;2023-05-10T01:50:17;15.00;99.90
59651;DHT22;45954;49.768;8.636;2023-05-10T01:52:53;14.90;99.90
59651;DHT22;45954;49.768;8.636;2023-05-10T01:55:27;14.90;99.90
59651;DHT22;45954;49.768;8.636;2023-05-10T01:58:03;14.90;99.90
59651;DHT22;45954;49.768;8.636;2023-05-10T02:00:33;14.90;99.90
59651;DHT22;45954;49.768;8.636;2023-05-10T02:03:05;14.90;99.90
59651;DHT22;45954;49.768;8.636;2023-05-10T02:05:33;14.90;99.90
59651;DHT22;45954;49.768;8.636;2023-05-10T02:08:03;14.80;99.90
59651;DHT22;45954;49.768;8.636;2023-05-10T02:10:34;14.70;99.90
59651;DHT22;45954;49.768;8.636;2023-05-10T02:13:02;14.80;99.90
59651;DHT22;45954;49.768;8.636;2023-05-10T02:15:30;14.80;99.90
59651;DHT22;45954;49.768;8.636;2023-05-10T02:17:59;14.70;99.90
59651;DHT22;45954;49.768;8.636;2023-05-10T02:20:26;14.60;99.90
59651;DHT22;45954;49.768;8.636;2023-05-10T02:22:54;14.60;99.90
59651;DHT22;45954;49.768;8.636;2023-05-10T02:25:23;14.70;99.90
59651;DHT22;45954;49.768;8.636;2023-05-10T02:27:54;14.80;99.90
59651;DHT22;45954;49.768;8.636;2023-05-10T02:30:22;14.90;99.90
59651;DHT22;45954;49.768;8.636;2023-05-10T02:32:50;14.70;99.90
59651;DHT22;45954;49.768;8.636;2023-05-10T02:35:17;14.60;99.90
59651;DHT22;45954;49.768;8.636;2023-05-10T02:37:46;14.70;99.90
59651;DHT22;45954;49.768;8.636;2023-05-10T02:40:15;14.90;99.90
59651;DHT22;45954;49.768;8.636;2023-05-10T02:42:44;14.80;99.90
59651;DHT22;45954;49.768;8.636;2023-05-10T02:45:19;14.60;99.90
59651;DHT22;45954;49.768;8.636;2023-05-10T02:47:47;14.60;99.90
59651;DHT22;45954;49.768;8.636;2023-05-10T02:50:13;14.60;99.90
59651;DHT22;45954;49.768;8.636;2023-05-10T02:52:44;14.70;99.90
59651;DHT22;45954;49.768;8.636;2023-05-10T02:55:16;14.60;99.90
59651;DHT22;45954;49.768;8.636;2023-05-10T02:57:59;14.60;99.90
59651;DHT22;45954;49.768;8.636;2023-05-10T03:00:26;14.60;99.90
59651;DHT22;45954;49.768;8.636;2023-05-10T03:02:53;14.70;99.90
59651;DHT22;45954;49.768;8.636;2023-05-10T03:05:19;14.80;99.90
59651;DHT22;45954;49.768;8.636;2023-05-10T03:07:46;14.80;99.90
59651;DHT22;45954;49.768;8.636;2023-05-10T03:10:12;14.60;99.90
59651;DHT22;45954;49.768;8.636;2023-05-10T03:15:59;14.70;99.90
59651;DHT22;45954;49.768;8.636;2023-05-10T03:18:54;14.80;99.90
59651;DHT22;45954;49.768;8.636;2023-05-10T03:21:28;14.70;99.90
59651;DHT22;45954;49.768;8.636;2023-05-10T03:24:14;14.60;99.90
59651;DHT22;45954;49.768;8.636;2023-05-10T03:26:44;14.70;99.90
59651;DHT22;45954;49.768;8.636;2023-05-10T03:29:13;14.70;99.90
59651;DHT22;45954;49.768;8.636;2023-05-10T03:31:40;14.70;99.90
59651;DHT22;45954;49.768;8.636;2023-05-10T03:34:06;14.40;99.90
59651;DHT22;45954;49.768;8.636;2023-05-10T03:36:32;14.40;99.90
59651;DHT22;45954;49.768;8.636;2023-05-10T03:38:58;14.40;99.90
59651;DHT22;45954;49.768;8.636;2023-05-10T03:41:24;14.40;99.90
59651;DHT22;45954;49.768;8.636;2023-05-10T03:43:51;14.40;99.90
59651;DHT22;45954;49.768;8.636;2023-05-10T03:46:17;14.30;99.90
59651;DHT22;45954;49.768;8.636;2023-05-10T03:48:43;14.30;99.90
59651;DHT22;45954;49.768;8.636;2023-05-10T03:51:09;14.40;99.90
59651;DHT22;45954;49.768;8.636;2023-05-10T03:53:35;14.40;99.90
59651;DHT22;45954;49.768;8.636;2023-05-10T03:56:01;14.30;99.90
59651;DHT22;45954;49.768;8.636;2023-05-10T03:58:27;14.40;99.90
59651;DHT22;45954;49.768;8.636;2023-05-10T04:00:52;14.40;99.90
59651;DHT22;45954;49.768;8.636;2023-05-10T04:03:19;14.30;99.90
59651;DHT22;45954;49.768;8.636;2023-05-10T04:05:45;14.40;99.90
59651;DHT22;45954;49.768;8.636;2023-05-10T04:08:11;14.50;99.90
59651;DHT22;45954;49.768;8.636;2023-05-10T04:10:37;14.60;99.90
59651;DHT22;45954;49.768;8.636;2023-05-10T04:13:03;14.60;99.90
59651;DHT22;45954;49.768;8.636;2023-05-10T04:15:29;14.50;99.90
59651;DHT22;45954;49.768;8.636;2023-05-10T04:17:55;14.60;99.90
59651;DHT22;45954;49.768;8.636;2023-05-10T04:20:20;14.60;99.90
59651;DHT22;45954;49.768;8.636;2023-05-10T04:22:46;14.50;99.90
59651;DHT22;45954;49.768;8.636;2023-05-10T04:25:12;14.50;99.90
59651;DHT22;45954;49.768;8.636;2023-05-10T04:27:38;14.60;99.90
59651;DHT22;45954;49.768;8.636;2023-05-10T04:30:04;14.60;99.90
59651;DHT22;45954;49.768;8.636;2023-05-10T04:32:31;14.60;99.90
59651;DHT22;45954;49.768;8.636;2023-05-10T04:34:57;14.70;99.90
59651;DHT22;45954;49.768;8.636;2023-05-10T04:37:23;14.70;99.90
59651;DHT22;45954;49.768;8.636;2023-05-10T04:39:48;14.50;99.90
59651;DHT22;45954;49.768;8.636;2023-05-10T04:42:14;14.50;99.90
59651;DHT22;45954;49.768;8.636;2023-05-10T04:44:41;14.40;99.90
59651;DHT22;45954;49.768;8.636;2023-05-10T04:47:06;14.40;99.90
59651;DHT22;45954;49.768;8.636;2023-05-10T04:49:32;14.40;99.90
59651;DHT22;45954;49.768;8.636;2023-05-10T04:51:58;14.50;99.90
59651;DHT22;45954;49.768;8.636;2023-05-10T04:54:24;14.50;99.90
59651;DHT22;45954;49.768;8.636;2023-05-10T04:56:50;14.60;99.90
59651;DHT22;45954;49.768;8.636;2023-05-10T04:59:16;14.60;99.90
59651;DHT22;45954;49.768;8.636;2023-05-10T05:01:42;14.70;99.90
59651;DHT22;45954;49.768;8.636;2023-05-10T05:04:08;14.60;99.90
59651;DHT22;45954;49.768;8.636;2023-05-10T05:06:34;14.60;99.90
59651;DHT22;45954;49.768;8.636;2023-05-10T05:09:00;14.70;99.90
59651;DHT22;45954;49.768;8.636;2023-05-10T05:11:26;14.70;99.90
59651;DHT22;45954;49.768;8.636;2023-05-10T05:13:52;14.70;99.90
59651;DHT22;45954;49.768;8.636;2023-05-10T05:16:18;14.60;99.90
59651;DHT22;45954;49.768;8.636;2023-05-10T05:18:43;14.60;99.90
59651;DHT22;45954;49.768;8.636;2023-05-10T05:21:19;14.70;99.90
59651;DHT22;45954;49.768;8.636;2023-05-10T05:23:45;14.70;99.90
59651;DHT22;45954;49.768;8.636;2023-05-10T05:26:11;14.70;99.90
59651;DHT22;45954;49.768;8.636;2023-05-10T05:28:38;14.70;99.90
59651;DHT22;45954;49.768;8.636;2023-05-10T05:31:05;14.80;99.90
59651;DHT22;45954;49.768;8.636;2023-05-10T05:33:31;14.80;99.90
59651;DHT22;45954;49.768;8.636;2023-05-10T05:35:59;14.80;99.90
59651;DHT22;45954;49.768;8.636;2023-05-10T05:38:26;14.80;99.90
59651;DHT22;45954;49.768;8.636;2023-05-10T05:40:52;14.70;99.90
59651;DHT22;45954;49.768;8.636;2023-05-10T05:43:17;14.80;99.90
59651;DHT22;45954;49.768;8.636;2023-05-10T05:45:43;14.90;99.90
59651;DHT22;45954;49.768;8.636;2023-05-10T05:48:09;15.00;99.90
59651;DHT22;45954;49.768;8.636;2023-05-10T05:50:35;15.20;99.90
59651;DHT22;45954;49.768;8.636;2023-05-10T05:53:01;15.30;99.90
59651;DHT22;45954;49.768;8.636;2023-05-10T05:55:26;15.30;99.90
59651;DHT22;45954;49.768;8.636;2023-05-10T05:57:52;15.10;99.90
59651;DHT22;45954;49.768;8.636;2023-05-10T06:00:19;15.30;99.90
59651;DHT22;45954;49.768;8.636;2023-05-10T06:02:45;15.20;99.90
59651;DHT22;45954;49.768;8.636;2023-05-10T06:05:11;15.40;99.90
59651;DHT22;45954;49.768;8.636;2023-05-10T06:07:36;15.20;99.90
59651;DHT22;45954;49.768;8.636;2023-05-10T06:10:03;15.40;99.90
59651;DHT22;45954;49.768;8.636;2023-05-10T06:12:29;15.40;99.90
59651;DHT22;45954;49.768;8.636;2023-05-10T06:14:54;15.40;99.90
59651;DHT22;45954;49.768;8.636;2023-05-10T06:17:20;15.20;99.90
59651;DHT22;45954;49.768;8.636;2023-05-10T06:19:47;15.20;99.90
59651;DHT22;45954;49.768;8.636;2023-05-10T06:22:13;15.30;99.90
59651;DHT22;45954;49.768;8.636;2023-05-10T06:24:38;15.40;99.90
59651;DHT22;45954;49.768;8.636;2023-05-10T06:27:05;15.50;99.90
59651;DHT22;45954;49.768;8.636;2023-05-10T06:29:31;15.80;99.90
59651;DHT22;45954;49.768;8.636;2023-05-10T06:31:57;15.60;99.90
59651;DHT22;45954;49.768;8.636;2023-05-10T06:34:24;15.60;99.90
59651;DHT22;45954;49.768;8.636;2023-05-10T06:36:50;15.60;99.90
59651;DHT22;45954;49.768;8.636;2023-05-10T06:39:16;15.50;99.90
59651;DHT22;45954;49.768;8.636;2023-05-10T06:41:41;15.50;99.90
59651;DHT22;45954;49.768;8.636;2023-05-10T06:44:07;15.60;99.90
59651;DHT22;45954;49.768;8.636;2023-05-10T06:46:34;15.60;99.90
59651;DHT22;45954;49.768;8.636;2023-05-10T06:48:59;15.40;99.90
59651;DHT22;45954;49.768;8.636;2023-05-10T06:51:25;15.70;99.90
59651;DHT22;45954;49.768;8.636;2023-05-10T06:53:51;15.80;99.90
59651;DHT22;45954;49.768;8.636;2023-05-10T06:56:17;16.00;99.90
59651;DHT22;45954;49.768;8.636;2023-05-10T06:58:43;16.10;99.90
59651;DHT22;45954;49.768;8.636;2023-05-10T07:01:09;16.00;99.90
59651;DHT22;45954;49.768;8.636;2023-05-10T07:03:34;15.90;99.90
59651;DHT22;45954;49.768;8.636;2023-05-10T07:06:01;16.10;99.90
59651;DHT22;45954;49.768;8.636;2023-05-10T07:08:32;16.00;99.90
59651;DHT22;45954;49.768;8.636;2023-05-10T07:11:06;16.00;99.90
59651;DHT22;45954;49.768;8.636;2023-05-10T07:13:34;16.00;99.90
59651;DHT22;45954;49.768;8.636;2023-05-10T07:16:00;16.10;99.90
59651;DHT22;45954;49.768;8.636;2023-05-10T07:18:27;15.90;99.90
59651;DHT22;45954;49.768;8.636;2023-05-10T07:20:53;15.90;99.90
59651;DHT22;45954;49.768;8.636;2023-05-10T07:23:19;16.20;99.90
59651;DHT22;45954;49.768;8.636;2023-05-10T07:25:46;16.10;99.90
59651;DHT22;45954;49.768;8.636;2023-05-10T07:28:16;16.10;99.90
59651;DHT22;45954;49.768;8.636;2023-05-10T07:30:42;16.10;99.90
59651;DHT22;45954;49.768;8.636;2023-05-10T07:33:10;16.00;99.90
59651;DHT22;45954;49.768;8.636;2023-05-10T07:35:37;16.00;99.90
59651;DHT22;45954;49.768;8.636;2023-05-10T07:38:03;16.10;99.90
59651;DHT22;45954;49.768;8.636;2023-05-10T07:40:30;16.40;99.90
59651;DHT22;45954;49.768;8.636;2023-05-10T07:42:56;16.60;99.90
59651;DHT22;45954;49.768;8.636;2023-05-10T07:45:22;16.50;99.90
59651;DHT22;45954;49.768;8.636;2023-05-10T07:47:49;16.40;99.90
59651;DHT22;45954;49.768;8.636;2023-05-10T07:50:15;16.30;99.90
59651;DHT22;45954;49.768;8.636;2023-05-10T07:52:41;16.40;99.90
59651;DHT22;45954;49.768;8.636;2023-05-10T07:55:08;16.40;99.90
59651;DHT22;45954;49.768;8.636;2023-05-10T07:57:34;16.30;99.90
59651;DHT22;45954;49.768;8.636;2023-05-10T08:00:00;16.10;99.90
59651;DHT22;45954;49.768;8.636;2023-05-10T08:02:26;15.90;99.90
59651;DHT22;45954;49.768;8.636;2023-05-10T08:04:52;15.80;99.90
59651;DHT22;45954;49.768;8.636;2023-05-10T08:07:18;15.60;99.90
59651;DHT22;45954;49.768;8.636;2023-05-10T08:09:44;15.90;99.90
59651;DHT22;45954;49.768;8.636;2023-05-10T08:12:10;15.90;99.90
59651;DHT22;45954;49.768;8.636;2023-05-10T08:14:35;16.00;99.90
59651;DHT22;45954;49.768;8.636;2023-05-10T08:17:03;16.00;99.90
59651;DHT22;45954;49.768;8.636;2023-05-10T08:19:29;16.10;99.90
59651;DHT22;45954;49.768;8.636;2023-05-10T08:21:55;16.20;99.90
59651;DHT22;45954;49.768;8.636;2023-05-10T08:24:21;16.20;99.90
59651;DHT22;45954;49.768;8.636;2023-05-10T08:26:48;16.40;99.90
59651;DHT22;45954;49.768;8.636;2023-05-10T08:29:14;16.30;99.90
59651;DHT22;45954;49.768;8.636;2023-05-10T08:31:41;16.50;99.90
59651;DHT22;45954;49.768;8.636;2023-05-10T08:34:07;16.50;99.90
59651;DHT22;45954;49.768;8.636;2023-05-10T08:36:32;16.50;99.90
59651;DHT22;45954;49.768;8.636;2023-05-10T08:38:58;16.50;99.90
59651;DHT22;45954;49.768;8.636;2023-05-10T08:41:25;16.50;99.90
59651;DHT22;45954;49.768;8.636;2023-05-10T08:43:54;16.70;99.90
59651;DHT22;45954;49.768;8.636;2023-05-10T08:46:21;16.80;99.90
59651;DHT22;45954;49.768;8.636;2023-05-10T08:48:50;17.20;99.90
59651;DHT22;45954;49.768;8.636;2023-05-10T08:51:24;17.50;99.90
59651;DHT22;45954;49.768;8.636;2023-05-10T08:53:54;17.40;99.90
59651;DHT22;45954;49.768;8.636;2023-05-10T08:56:20;17.50;99.90
59651;DHT22;45954;49.768;8.636;2023-05-10T08:58:46;17.60;99.90
59651;DHT22;45954;49.768;8.636;2023-05-10T09:01:13;17.70;99.90
59651;DHT22;45954;49.768;8.636;2023-05-10T09:03:41;17.70;99.90
59651;DHT22;45954;49.768;8.636;2023-05-10T09:06:07;17.20;99.90
59651;DHT22;45954;49.768;8.636;2023-05-10T09:08:33;17.20;99.90
59651;DHT22;45954;49.768;8.636;2023-05-10T09:11:00;17.40;99.90
59651;DHT22;45954;49.768;8.636;2023-05-10T09:13:28;17.70;99.90
59651;DHT22;45954;49.768;8.636;2023-05-10T09:15:54;17.70;99.90
59651;DHT22;45954;49.768;8.636;2023-05-10T09:18:20;17.70;99.90
59651;DHT22;45954;49.768;8.636;2023-05-10T09:20:46;17.40;99.90
59651;DHT22;45954;49.768;8.636;2023-05-10T09:23:12;17.50;99.90
59651;DHT22;45954;49.768;8.636;2023-05-10T09:25:38;17.80;99.90
59651;DHT22;45954;49.768;8.636;2023-05-10T09:28:07;18.00;99.90
59651;DHT22;45954;49.768;8.636;2023-05-10T09:30:34;18.00;99.90
59651;DHT22;45954;49.768;8.636;2023-05-10T09:33:02;17.90;99.90
59651;DHT22;45954;49.768;8.636;2023-05-10T09:35:30;17.70;99.90
59651;DHT22;45954;49.768;8.636;2023-05-10T09:38:03;17.50;99.90
59651;DHT22;45954;49.768;8.636;2023-05-10T09:40:31;17.20;99.90
59651;DHT22;45954;49.768;8.636;2023-05-10T09:43:08;17.20;99.90
59651;DHT22;45954;49.768;8.636;2023-05-10T09:45:35;17.30;99.90
59651;DHT22;45954;49.768;8.636;2023-05-10T09:48:03;17.60;99.90
59651;DHT22;45954;49.768;8.636;2023-05-10T09:50:30;17.60;99.90
59651;DHT22;45954;49.768;8.636;2023-05-10T09:52:57;17.60;99.90
59651;DHT22;45954;49.768;8.636;2023-05-10T09:55:37;17.80;99.90
59651;DHT22;45954;49.768;8.636;2023-05-10T09:58:09;18.10;99.90
59651;DHT22;45954;49.768;8.636;2023-05-10T10:00:40;17.80;99.90
59651;DHT22;45954;49.768;8.636;2023-05-10T10:03:28;17.90;99.90
59651;DHT22;45954;49.768;8.636;2023-05-10T10:05:55;17.70;99.90
59651;DHT22;45954;49.768;8.636;2023-05-10T10:08:21;17.50;99.90
59651;DHT22;45954;49.768;8.636;2023-05-10T10:10:47;17.50;99.90
59651;DHT22;45954;49.768;8.636;2023-05-10T10:13:14;17.60;99.90
59651;DHT22;45954;49.768;8.636;2023-05-10T10:15:42;17.70;99.90
59651;DHT22;45954;49.768;8.636;2023-05-10T10:18:13;17.30;99.90
59651;DHT22;45954;49.768;8.636;2023-05-10T10:20:41;17.50;99.90
59651;DHT22;45954;49.768;8.636;2023-05-10T10:23:08;18.10;99.90
59651;DHT22;45954;49.768;8.636;2023-05-10T10:25:34;18.20;99.90
59651;DHT22;45954;49.768;8.636;2023-05-10T10:31:40;18.20;99.90
59651;DHT22;45954;49.768;8.636;2023-05-10T10:34:24;18.10;99.90
59651;DHT22;45954;49.768;8.636;2023-05-10T10:36:56;18.10;99.80
59651;DHT22;45954;49.768;8.636;2023-05-10T10:39:24;17.90;99.90
59651;DHT22;45954;49.768;8.636;2023-05-10T10:41:54;18.10;99.80
59651;DHT22;45954;49.768;8.636;2023-05-10T10:52:42;17.90;99.90
59651;DHT22;45954;49.768;8.636;2023-05-10T11:00:29;17.90;99.90
59651;DHT22;45954;49.768;8.636;2023-05-10T11:03:09;17.90;99.90
59651;DHT22;45954;49.768;8.636;2023-05-10T11:05:39;18.00;99.90
59651;DHT22;45954;49.768;8.636;2023-05-10T11:13:31;17.80;99.90
59651;DHT22;45954;49.768;8.636;2023-05-10T11:15:58;17.80;99.90
59651;DHT22;45954;49.768;8.636;2023-05-10T11:18:25;17.90;99.90
59651;DHT22;45954;49.768;8.636;2023-05-10T11:20:59;18.00;99.90
59651;DHT22;45954;49.768;8.636;2023-05-10T11:23:33;18.00;99.90
59651;DHT22;45954;49.768;8.636;2023-05-10T11:26:13;18.20;99.90
59651;DHT22;45954;49.768;8.636;2023-05-10T11:28:44;19.00;99.90
59651;DHT22;45954;49.768;8.636;2023-05-10T11:31:14;19.40;99.60
59651;DHT22;45954;49.768;8.636;2023-05-10T11:33:58;19.10;99.60
59651;DHT22;45954;49.768;8.636;2023-05-10T11:36:26;18.90;99.40
59651;DHT22;45954;49.768;8.636;2023-05-10T11:38:54;18.60;99.90
59651;DHT22;45954;49.768;8.636;2023-05-10T11:41:22;18.60;99.60
59651;DHT22;45954;49.768;8.636;2023-05-10T11:43:57;18.80;98.80
59651;DHT22;45954;49.768;8.636;2023-05-10T11:46:25;19.00;99.00
59651;DHT22;45954;49.768;8.636;2023-05-10T11:48:59;19.20;98.20
59651;DHT22;45954;49.768;8.636;2023-05-10T11:51:27;19.30;98.80
59651;DHT22;45954;49.768;8.636;2023-05-10T11:53:55;19.00;98.10
59651;DHT22;45954;49.768;8.636;2023-05-10T11:56:22;18.70;98.70
59651;DHT22;45954;49.768;8.636;2023-05-10T11:58:54;18.70;98.70
59651;DHT22;45954;49.768;8.636;2023-05-10T12:01:21;18.40;98.70
59651;DHT22;45954;49.768;8.636;2023-05-10T12:03:50;18.20;99.10
59651;DHT22;45954;49.768;8.636;2023-05-10T12:06:18;18.40;99.80
59651;DHT22;45954;49.768;8.636;2023-05-10T12:08:46;18.60;99.80
59651;DHT22;45954;49.768;8.636;2023-05-10T12:11:13;19.20;99.20
59651;DHT22;45954;49.768;8.636;2023-05-10T12:13:42;19.50;99.00
59651;DHT22;45954;49.768;8.636;2023-05-10T12:16:19;19.50;98.10
59651;DHT22;45954;49.768;8.636;2023-05-10T12:18:56;19.10;98.20
59651;DHT22;45954;49.768;8.636;2023-05-10T12:21:28;19.20;99.20
59651;DHT22;45954;49.768;8.636;2023-05-10T12:24:01;19.70;98.10
59651;DHT22;45954;49.768;8.636;2023-05-10T12:26:29;19.60;98.50
59651;DHT22;45954;49.768;8.636;2023-05-10T12:29:20;19.50;97.20
59651;DHT22;45954;49.768;8.636;2023-05-10T12:31:57;19.70;96.80
59651;DHT22;45954;49.768;8.636;2023-05-10T12:34:31;19.70;98.00
59651;DHT22;45954;49.768;8.636;2023-05-10T12:36:58;19.80;97.20
59651;DHT22;45954;49.768;8.636;2023-05-10T12:39:24;19.70;96.70
59651;DHT22;45954;49.768;8.636;2023-05-10T12:41:51;19.50;96.90
59651;DHT22;45954;49.768;8.636;2023-05-10T12:44:18;19.10;97.50
59651;DHT22;45954;49.768;8.636;2023-05-10T12:46:44;19.10;97.80
59651;DHT22;45954;49.768;8.636;2023-05-10T12:49:10;18.90;97.80
59651;DHT22;45954;49.768;8.636;2023-05-10T12:51:36;18.80;98.40
59651;DHT22;45954;49.768;8.636;2023-05-10T12:54:02;18.80;98.20
59651;DHT22;45954;49.768;8.636;2023-05-10T12:56:28;18.80;97.80
59651;DHT22;45954;49.768;8.636;2023-05-10T12:58:54;18.80;98.10
59651;DHT22;45954;49.768;8.636;2023-05-10T13:01:20;18.70;98.10
59651;DHT22;45954;49.768;8.636;2023-05-10T13:03:46;18.90;98.80
59651;DHT22;45954;49.768;8.636;2023-05-10T13:06:13;19.20;98.40
59651;DHT22;45954;49.768;8.636;2023-05-10T13:08:39;19.20;98.20
59651;DHT22;45954;49.768;8.636;2023-05-10T13:11:05;19.60;98.10
59651;DHT22;45954;49.768;8.636;2023-05-10T13:13:32;19.80;99.20
59651;DHT22;45954;49.768;8.636;2023-05-10T13:15:58;19.50;97.90
59651;DHT22;45954;49.768;8.636;2023-05-10T13:18:24;19.60;98.70
59651;DHT22;45954;49.768;8.636;2023-05-10T13:20:51;19.40;97.90
59651;DHT22;45954;49.768;8.636;2023-05-10T13:23:17;19.90;97.20
59651;DHT22;45954;49.768;8.636;2023-05-10T13:25:43;20.60;97.70
59651;DHT22;45954;49.768;8.636;2023-05-10T13:28:09;20.60;96.50
59651;DHT22;45954;49.768;8.636;2023-05-10T13:30:34;20.60;96.70
59651;DHT22;45954;49.768;8.636;2023-05-10T13:33:00;19.40;96.50
59651;DHT22;45954;49.768;8.636;2023-05-10T13:35:26;19.60;96.10
59651;DHT22;45954;49.768;8.636;2023-05-10T13:37:52;18.90;96.40
59651;DHT22;45954;49.768;8.636;2023-05-10T13:40:19;19.20;95.30
59651;DHT22;45954;49.768;8.636;2023-05-10T13:42:44;18.90;96.90
59651;DHT22;45954;49.768;8.636;2023-05-10T13:45:10;19.50;96.80
59651;DHT22;45954;49.768;8.636;2023-05-10T13:47:38;20.10;96.10
59651;DHT22;45954;49.768;8.636;2023-05-10T13:50:04;20.40;95.10
59651;DHT22;45954;49.768;8.636;2023-05-10T13:52:31;20.70;94.30
59651;DHT22;45954;49.768;8.636;2023-05-10T13:54:57;19.90;93.60
59651;DHT22;45954;49.768;8.636;2023-05-10T13:57:23;19.70;94.40
59651;DHT22;45954;49.768;8.636;2023-05-10T13:59:49;19.90;95.50
59651;DHT22;45954;49.768;8.636;2023-05-10T14:02:15;20.40;93.80
59651;DHT22;45954;49.768;8.636;2023-05-10T14:04:41;20.10;94.60
59651;DHT22;45954;49.768;8.636;2023-05-10T14:07:07;20.50;95.10
59651;DHT22;45954;49.768;8.636;2023-05-10T14:09:33;20.80;95.00
59651;DHT22;45954;49.768;8.636;2023-05-10T14:11:59;20.60;94.30
59651;DHT22;45954;49.768;8.636;2023-05-10T14:14:25;20.60;94.20
59651;DHT22;45954;49.768;8.636;2023-05-10T14:16:51;20.50;95.00
59651;DHT22;45954;49.768;8.636;2023-05-10T14:19:17;20.60;94.40
59651;DHT22;45954;49.768;8.636;2023-05-10T14:21:43;20.70;94.10
59651;DHT22;45954;49.768;8.636;2023-05-10T14:24:09;21.20;93.40
59651;DHT22;45954;49.768;8.636;2023-05-10T14:26:35;20.90;93.90
59651;DHT22;45954;49.768;8.636;2023-05-10T14:29:01;20.90;93.70
59651;DHT22;45954;49.768;8.636;2023-05-10T14:31:26;20.50;95.10
59651;DHT22;45954;49.768;8.636;2023-05-10T14:33:53;20.60;95.20
59651;DHT22;45954;49.768;8.636;2023-05-10T14:36:19;20.10;95.40
59651;DHT22;45954;49.768;8.636;2023-05-10T14:38:45;19.60;95.80
59651;DHT22;45954;49.768;8.636;2023-05-10T14:41:10;19.20;96.50
59651;DHT22;45954;49.768;8.636;2023-05-10T14:43:40;19.60;97.60
59651;DHT22;45954;49.768;8.636;2023-05-10T14:46:06;20.00;97.00
59651;DHT22;45954;49.768;8.636;2023-05-10T14:48:32;19.90;97.10
59651;DHT22;45954;49.768;8.636;2023-05-10T14:50:58;20.10;96.90
59651;DHT22;45954;49.768;8.636;2023-05-10T14:53:24;20.00;97.20
59651;DHT22;45954;49.768;8.636;2023-05-10T14:55:50;20.10;96.60
59651;DHT22;45954;49.768;8.636;2023-05-10T14:58:15;20.00;96.80
59651;DHT22;45954;49.768;8.636;2023-05-10T15:00:42;19.80;96.00
59651;DHT22;45954;49.768;8.636;2023-05-10T15:03:07;19.60;96.60
59651;DHT22;45954;49.768;8.636;2023-05-10T15:05:33;19.30;95.90
59651;DHT22;45954;49.768;8.636;2023-05-10T15:07:59;19.50;95.50
59651;DHT22;45954;49.768;8.636;2023-05-10T15:10:25;19.40;96.30
59651;DHT22;45954;49.768;8.636;2023-05-10T15:12:51;19.10;95.80
59651;DHT22;45954;49.768;8.636;2023-05-10T15:15:17;19.50;96.30
59651;DHT22;45954;49.768;8.636;2023-05-10T15:17:43;19.80;95.40
59651;DHT22;45954;49.768;8.636;2023-05-10T15:20:09;19.60;95.70
59651;DHT22;45954;49.768;8.636;2023-05-10T15:22:35;19.90;96.00
59651;DHT22;45954;49.768;8.636;2023-05-10T15:25:01;20.00;94.70
59651;DHT22;45954;49.768;8.636;2023-05-10T15:27:27;20.10;95.90
59651;DHT22;45954;49.768;8.636;2023-05-10T15:29:52;20.40;94.80
59651;DHT22;45954;49.768;8.636;2023-05-10T15:32:19;20.30;95.00
59651;DHT22;45954;49.768;8.636;2023-05-10T15:34:45;20.00;94.40
59651;DHT22;45954;49.768;8.636;2023-05-10T15:37:10;19.70;95.20
59651;DHT22;45954;49.768;8.636;2023-05-10T15:39:36;19.50;94.30
59651;DHT22;45954;49.768;8.636;2023-05-10T15:42:02;19.20;94.70
59651;DHT22;45954;49.768;8.636;2023-05-10T15:44:29;19.30;95.00
59651;DHT22;45954;49.768;8.636;2023-05-10T15:46:55;19.60;95.90
59651;DHT22;45954;49.768;8.636;2023-05-10T15:49:21;20.00;95.70
59651;DHT22;45954;49.768;8.636;2023-05-10T15:51:47;19.50;94.60
59651;DHT22;45954;49.768;8.636;2023-05-10T15:54:13;18.90;95.30
59651;DHT22;45954;49.768;8.636;2023-05-10T15:56:39;18.90;95.60
59651;DHT22;45954;49.768;8.636;2023-05-10T15:59:05;19.40;95.70
59651;DHT22;45954;49.768;8.636;2023-05-10T16:01:33;19.40;95.40
59651;DHT22;45954;49.768;8.636;2023-05-10T16:03:59;19.60;94.40
59651;DHT22;45954;49.768;8.636;2023-05-10T16:06:26;19.70;94.20
59651;DHT22;45954;49.768;8.636;2023-05-10T16:08:51;19.60;94.30
59651;DHT22;45954;49.768;8.636;2023-05-10T16:11:17;19.60;93.60
59651;DHT22;45954;49.768;8.636;2023-05-10T16:13:43;19.80;94.50